Time;durP1;ratioP1;P1;durP2;ratioP2;P2;SDS_P1;SDS_P2;PMS_P1;PMS_P2;Temp;Humidity;BMP_temperature;BMP_pressure;BME280_temperature;BME280_humidity;BME280_pressure;Samples;Min_cycle;Max_cycle;Signal;HPM_P1;HPM_P2
2023/03/09 00:01:53;;;;;;;30.17;13.13;;;;;;;;;;5047930;28;20213;-67
2023/03/09 00:04:19;;;;;;;28.53;14.03;;;;;;;;;;5056106;28;20291;-67
2023/03/09 00:06:45;;;;;;;27.23;13.60;;;;;;;;;;5051316;28;20323;-67
2023/03/09 00:09:12;;;;;;;25.10;12.60;;;;;;;;;;5047203;28;20528;-67
2023/03/09 00:11:41;;;;;;;26.30;13.17;;;;;;;;;;5049193;28;20243;-67
2023/03/09 00:14:07;;;;;;;26.33;13.60;;;;;;;;;;5048299;28;20193;-67
2023/03/09 00:16:33;;;;;;;25.47;13.13;;;;;;;;;;5053839;28;20205;-67
2023/03/09 00:18:58;;;;;;;26.60;14.20;;;;;;;;;;5048572;28;20315;-68
2023/03/09 00:21:34;;;;;;;26.43;13.60;;;;;;;;;;5047289;28;20182;-68
2023/03/09 00:24:11;;;;;;;30.03;14.13;;;;;;;;;;5062917;28;20257;-67
2023/03/09 00:26:39;;;;;;;28.33;14.80;;;;;;;;;;5062985;28;20275;-67
2023/03/09 00:29:07;;;;;;;28.07;13.73;;;;;;;;;;5051444;28;20652;-67
2023/03/09 00:31:32;;;;;;;29.67;14.37;;;;;;;;;;5053635;28;20189;-67
2023/03/09 00:33:57;;;;;;;29.70;13.67;;;;;;;;;;5053926;28;20244;-68
2023/03/09 00:36:24;;;;;;;31.23;15.10;;;;;;;;;;5064412;28;20745;-67
2023/03/09 00:38:51;;;;;;;33.03;14.87;;;;;;;;;;5063728;28;20239;-67
2023/03/09 00:41:17;;;;;;;30.70;15.30;;;;;;;;;;5053910;28;20521;-68
2023/03/09 00:43:43;;;;;;;31.07;15.83;;;;;;;;;;5040531;28;20193;-68
2023/03/09 00:46:08;;;;;;;32.33;16.30;;;;;;;;;;5059295;28;20188;-68
2023/03/09 00:48:36;;;;;;;40.33;16.80;;;;;;;;;;5060012;28;20199;-68
2023/03/09 00:51:01;;;;;;;30.00;15.30;;;;;;;;;;5058759;28;20315;-68
2023/03/09 00:53:27;;;;;;;32.27;16.47;;;;;;;;;;5054501;28;20633;-67
2023/03/09 00:55:52;;;;;;;29.47;15.60;;;;;;;;;;5054887;28;20196;-67
2023/03/09 00:58:17;;;;;;;37.67;17.23;;;;;;;;;;5057095;28;20240;-68
2023/03/09 01:00:43;;;;;;;30.57;15.93;;;;;;;;;;5064538;28;20244;-68
2023/03/09 01:03:08;;;;;;;34.37;16.57;;;;;;;;;;5057082;28;20280;-67
2023/03/09 01:05:33;;;;;;;31.60;16.23;;;;;;;;;;5062107;28;20197;-67
2023/03/09 01:07:59;;;;;;;34.17;16.27;;;;;;;;;;5063948;28;20185;-68
2023/03/09 01:10:24;;;;;;;30.13;15.23;;;;;;;;;;5060695;28;20197;-68
2023/03/09 01:12:49;;;;;;;33.53;15.80;;;;;;;;;;5053025;28;20657;-67
2023/03/09 01:15:15;;;;;;;32.40;15.33;;;;;;;;;;5047651;28;20247;-67
2023/03/09 01:17:42;;;;;;;31.00;15.23;;;;;;;;;;5052717;28;20553;-67
2023/03/09 01:20:08;;;;;;;33.03;16.03;;;;;;;;;;5052152;28;20274;-69
2023/03/09 01:22:34;;;;;;;36.40;15.73;;;;;;;;;;5048214;28;20193;-68
2023/03/09 01:24:59;;;;;;;34.43;16.37;;;;;;;;;;5059780;28;20284;-68
2023/03/09 01:27:25;;;;;;;34.73;16.63;;;;;;;;;;5058840;28;20250;-68
2023/03/09 01:29:50;;;;;;;33.37;16.17;;;;;;;;;;5048084;28;20206;-67
2023/03/09 01:32:15;;;;;;;37.37;16.97;;;;;;;;;;5053853;28;20246;-67
2023/03/09 01:34:41;;;;;;;41.83;17.40;;;;;;;;;;5054412;28;20261;-67
2023/03/09 01:37:06;;;;;;;36.70;17.77;;;;;;;;;;5059008;28;20572;-67
2023/03/09 01:39:32;;;;;;;39.17;18.57;;;;;;;;;;5057724;28;20255;-67
2023/03/09 01:41:58;;;;;;;38.43;17.43;;;;;;;;;;5057487;28;20591;-68
2023/03/09 01:44:23;;;;;;;36.77;17.20;;;;;;;;;;5060829;28;20193;-67
2023/03/09 01:46:56;;;;;;;40.97;17.80;;;;;;;;;;5054384;28;20194;-68
2023/03/09 01:49:36;;;;;;;43.37;17.23;;;;;;;;;;5059465;28;20190;-68
2023/03/09 01:52:10;;;;;;;41.57;18.37;;;;;;;;;;5062738;28;20770;-67
2023/03/09 01:54:44;;;;;;;39.67;17.17;;;;;;;;;;5055218;28;20231;-67
2023/03/09 01:57:28;;;;;;;41.77;18.93;;;;;;;;;;5056445;28;20296;-67
2023/03/09 01:59:58;;;;;;;37.23;17.43;;;;;;;;;;5054421;28;20347;-67
2023/03/09 02:02:27;;;;;;;39.10;17.80;;;;;;;;;;5052678;28;20745;-67
2023/03/09 02:04:59;;;;;;;40.37;18.73;;;;;;;;;;5053050;28;20280;-67
2023/03/09 02:07:26;;;;;;;41.60;19.07;;;;;;;;;;5053354;28;20735;-67
2023/03/09 02:09:58;;;;;;;42.80;18.93;;;;;;;;;;5066525;28;20333;-67
2023/03/09 02:12:24;;;;;;;41.37;18.17;;;;;;;;;;5054372;28;20671;-69
2023/03/09 02:14:50;;;;;;;39.03;18.10;;;;;;;;;;5058498;28;20492;-68
2023/03/09 02:17:17;;;;;;;41.77;19.90;;;;;;;;;;5054575;28;20220;-68
2023/03/09 02:20:30;;;;;;;39.17;18.87;;;;;;;;;;5050375;28;20616;-69
2023/03/09 02:22:56;;;;;;;43.50;18.73;;;;;;;;;;5057006;28;20287;-67
2023/03/09 02:25:32;;;;;;;38.47;18.47;;;;;;;;;;5054803;28;20276;-67
2023/03/09 02:27:59;;;;;;;41.27;19.70;;;;;;;;;;5060524;28;20280;-67
2023/03/09 02:30:28;;;;;;;39.73;19.23;;;;;;;;;;5059674;28;20226;-68
2023/03/09 02:33:10;;;;;;;41.93;19.57;;;;;;;;;;5049934;28;20209;-69
2023/03/09 02:35:36;;;;;;;41.67;19.80;;;;;;;;;;5057686;28;20206;-69
2023/03/09 02:38:02;;;;;;;41.50;19.63;;;;;;;;;;5059648;28;20716;-68
2023/03/09 02:40:31;;;;;;;44.33;20.93;;;;;;;;;;5054375;28;20189;-69
2023/03/09 02:42:57;;;;;;;42.97;19.87;;;;;;;;;;5063128;28;20284;-67
2023/03/09 02:45:23;;;;;;;39.07;18.70;;;;;;;;;;5066054;28;20230;-67
2023/03/09 02:47:48;;;;;;;37.67;18.70;;;;;;;;;;5055640;28;20279;-67
2023/03/09 02:50:15;;;;;;;38.07;17.33;;;;;;;;;;5050489;28;20193;-67
2023/03/09 02:52:40;;;;;;;36.57;17.63;;;;;;;;;;5067168;28;20231;-67
2023/03/09 02:55:07;;;;;;;37.40;17.90;;;;;;;;;;5061301;28;20548;-67
2023/03/09 02:57:32;;;;;;;37.97;18.30;;;;;;;;;;5050818;28;20294;-67
2023/03/09 02:59:58;;;;;;;35.80;17.63;;;;;;;;;;5054580;28;20251;-67
2023/03/09 03:02:23;;;;;;;35.53;16.83;;;;;;;;;;5067171;28;20201;-68
2023/03/09 03:04:48;;;;;;;38.43;18.33;;;;;;;;;;5064354;28;20211;-67
2023/03/09 03:07:14;;;;;;;38.03;18.80;;;;;;;;;;5052681;28;20190;-67
2023/03/09 03:09:39;;;;;;;36.27;17.47;;;;;;;;;;5057950;28;20215;-67
2023/03/09 03:12:05;;;;;;;34.53;16.13;;;;;;;;;;5050771;28;20279;-67
2023/03/09 03:14:30;;;;;;;37.90;17.47;;;;;;;;;;5069506;28;20180;-67
2023/03/09 03:16:56;;;;;;;32.73;16.57;;;;;;;;;;5055339;28;20208;-67
2023/03/09 03:19:22;;;;;;;33.17;16.50;;;;;;;;;;5054244;28;20609;-68
2023/03/09 03:21:48;;;;;;;34.23;16.60;;;;;;;;;;5051532;28;20197;-67
2023/03/09 03:24:14;;;;;;;34.63;17.60;;;;;;;;;;5059588;28;20211;-67
2023/03/09 03:26:40;;;;;;;33.60;16.87;;;;;;;;;;5055572;28;20287;-67
2023/03/09 03:29:05;;;;;;;36.23;17.07;;;;;;;;;;5057128;28;20268;-67
2023/03/09 03:31:31;;;;;;;30.63;15.73;;;;;;;;;;5059036;28;20189;-68
2023/03/09 03:33:56;;;;;;;30.90;15.97;;;;;;;;;;5052497;28;20251;-68
2023/03/09 03:36:21;;;;;;;33.80;16.60;;;;;;;;;;5059711;28;20181;-67
2023/03/09 03:38:47;;;;;;;35.73;16.57;;;;;;;;;;5057805;28;20184;-68
2023/03/09 03:41:12;;;;;;;33.80;16.97;;;;;;;;;;5055423;28;20193;-69
2023/03/09 03:43:37;;;;;;;34.97;18.33;;;;;;;;;;5049523;28;20201;-69
2023/03/09 03:46:03;;;;;;;33.90;17.53;;;;;;;;;;5056620;28;20280;-69
2023/03/09 03:48:28;;;;;;;36.67;17.17;;;;;;;;;;5058115;28;20207;-69
2023/03/09 03:50:54;;;;;;;36.23;17.03;;;;;;;;;;5064531;28;20192;-67
2023/03/09 03:53:19;;;;;;;37.17;18.50;;;;;;;;;;5054179;28;20275;-67
2023/03/09 03:55:45;;;;;;;33.67;16.10;;;;;;;;;;5054534;28;20338;-68
2023/03/09 03:58:10;;;;;;;35.63;17.20;;;;;;;;;;5059466;28;20209;-67
2023/03/09 04:00:35;;;;;;;36.70;16.57;;;;;;;;;;5061678;28;20390;-68
2023/03/09 04:03:01;;;;;;;39.23;16.80;;;;;;;;;;5043876;28;20629;-68
2023/03/09 04:05:26;;;;;;;34.57;16.27;;;;;;;;;;5048540;28;20212;-69
2023/03/09 04:07:52;;;;;;;35.33;16.73;;;;;;;;;;5048492;28;20181;-68
2023/03/09 04:10:18;;;;;;;33.83;17.00;;;;;;;;;;5052637;28;20193;-69
2023/03/09 04:12:43;;;;;;;36.93;17.67;;;;;;;;;;5067407;28;20195;-67
2023/03/09 04:15:09;;;;;;;33.80;17.10;;;;;;;;;;5062482;28;20235;-67
2023/03/09 04:17:34;;;;;;;40.33;18.97;;;;;;;;;;5052307;28;20653;-67
2023/03/09 04:20:00;;;;;;;38.90;18.97;;;;;;;;;;5067974;28;20626;-67
2023/03/09 04:22:25;;;;;;;40.87;18.87;;;;;;;;;;5054541;28;20236;-67
2023/03/09 04:24:51;;;;;;;38.23;18.17;;;;;;;;;;5049444;28;20221;-68
2023/03/09 04:27:16;;;;;;;38.90;18.07;;;;;;;;;;5052452;28;20216;-67
2023/03/09 04:29:41;;;;;;;35.50;17.83;;;;;;;;;;5048260;28;20579;-67
2023/03/09 04:32:07;;;;;;;35.40;18.03;;;;;;;;;;5057215;28;20193;-67
2023/03/09 04:34:32;;;;;;;36.80;16.83;;;;;;;;;;5051299;28;20319;-68
2023/03/09 04:36:58;;;;;;;36.13;18.30;;;;;;;;;;5061074;28;20312;-67
2023/03/09 04:39:24;;;;;;;36.87;18.50;;;;;;;;;;5052444;28;20208;-68
2023/03/09 04:41:49;;;;;;;38.50;18.43;;;;;;;;;;5057820;28;20200;-68
2023/03/09 04:44:14;;;;;;;35.00;18.57;;;;;;;;;;5059716;28;20196;-68
2023/03/09 04:46:40;;;;;;;37.53;17.47;;;;;;;;;;5053868;28;20180;-68
2023/03/09 04:49:06;;;;;;;35.27;18.13;;;;;;;;;;5056793;28;20601;-67
2023/03/09 04:51:31;;;;;;;41.07;19.93;;;;;;;;;;5065697;28;20189;-68
2023/03/09 04:53:57;;;;;;;40.30;19.77;;;;;;;;;;5058427;28;20207;-68
2023/03/09 04:56:22;;;;;;;43.10;20.43;;;;;;;;;;5053941;28;20217;-68
2023/03/09 04:58:47;;;;;;;35.17;17.47;;;;;;;;;;5055296;28;20185;-68
2023/03/09 05:01:13;;;;;;;35.20;19.20;;;;;;;;;;5047107;28;20295;-69
2023/03/09 05:03:39;;;;;;;37.10;19.23;;;;;;;;;;5055132;28;20273;-68
2023/03/09 05:06:04;;;;;;;36.80;17.77;;;;;;;;;;5058067;28;20205;-68
2023/03/09 05:08:30;;;;;;;36.87;18.27;;;;;;;;;;5055265;28;20319;-68
2023/03/09 05:10:55;;;;;;;39.50;18.73;;;;;;;;;;5055662;28;20197;-68
2023/03/09 05:13:21;;;;;;;38.20;19.63;;;;;;;;;;5067876;28;20282;-67
2023/03/09 05:15:46;;;;;;;36.03;19.10;;;;;;;;;;5049326;28;20781;-67
2023/03/09 05:18:12;;;;;;;39.50;19.13;;;;;;;;;;5059969;28;20197;-67
2023/03/09 05:20:38;;;;;;;38.67;19.27;;;;;;;;;;5054986;28;20271;-68
2023/03/09 05:23:03;;;;;;;36.90;19.00;;;;;;;;;;5058401;28;20196;-68
2023/03/09 05:25:29;;;;;;;37.63;18.67;;;;;;;;;;5066111;28;20718;-68
2023/03/09 05:27:55;;;;;;;39.57;19.57;;;;;;;;;;5051912;28;20185;-68
2023/03/09 05:30:20;;;;;;;41.13;18.63;;;;;;;;;;5062538;28;20288;-68
2023/03/09 05:32:46;;;;;;;36.93;18.87;;;;;;;;;;5058854;28;20185;-67
2023/03/09 05:35:12;;;;;;;37.10;18.63;;;;;;;;;;5065498;28;20186;-68
2023/03/09 05:37:38;;;;;;;36.53;18.90;;;;;;;;;;5054905;28;20213;-68
2023/03/09 05:40:08;;;;;;;35.80;19.07;;;;;;;;;;5053820;28;20566;-68
2023/03/09 05:42:33;;;;;;;38.60;19.07;;;;;;;;;;5063034;28;20192;-68
2023/03/09 05:45:03;;;;;;;42.90;19.80;;;;;;;;;;5058114;28;20197;-68
2023/03/09 05:47:28;;;;;;;38.73;19.23;;;;;;;;;;5057366;28;20273;-68
2023/03/09 05:49:54;;;;;;;37.77;18.30;;;;;;;;;;5058677;28;20232;-68
2023/03/09 05:52:19;;;;;;;37.37;19.87;;;;;;;;;;5059924;28;20197;-68
2023/03/09 05:54:45;;;;;;;34.37;18.27;;;;;;;;;;5056427;28;20555;-68
2023/03/09 05:57:11;;;;;;;39.57;19.90;;;;;;;;;;5065471;28;20235;-68
2023/03/09 05:59:36;;;;;;;35.83;18.50;;;;;;;;;;5059300;28;20216;-68
2023/03/09 06:02:01;;;;;;;37.73;18.20;;;;;;;;;;5063686;28;20246;-68
2023/03/09 06:04:27;;;;;;;37.37;18.37;;;;;;;;;;5062014;28;20285;-68
2023/03/09 06:06:52;;;;;;;37.20;18.97;;;;;;;;;;5062457;28;20185;-67
2023/03/09 06:09:18;;;;;;;36.83;18.00;;;;;;;;;;5055968;28;20193;-67
2023/03/09 06:11:43;;;;;;;38.47;18.37;;;;;;;;;;5060851;28;20216;-68
2023/03/09 06:14:09;;;;;;;37.00;18.77;;;;;;;;;;5052210;28;20632;-67
2023/03/09 06:16:34;;;;;;;37.80;18.60;;;;;;;;;;5058662;28;20193;-68
2023/03/09 06:19:00;;;;;;;40.47;19.30;;;;;;;;;;5061743;28;20194;-67
2023/03/09 06:21:26;;;;;;;36.17;18.53;;;;;;;;;;5065931;28;20291;-67
2023/03/09 06:23:55;;;;;;;37.17;18.37;;;;;;;;;;5054059;28;20401;-69
2023/03/09 06:26:21;;;;;;;36.63;18.87;;;;;;;;;;5057324;28;20204;-68
2023/03/09 06:28:47;;;;;;;36.10;18.03;;;;;;;;;;5066480;28;20223;-69
2023/03/09 06:31:14;;;;;;;37.33;18.77;;;;;;;;;;5059798;28;20657;-68
2023/03/09 06:33:42;;;;;;;38.97;19.87;;;;;;;;;;5053633;28;20241;-68
2023/03/09 06:36:09;;;;;;;40.87;18.90;;;;;;;;;;5064751;28;20254;-67
2023/03/09 06:38:35;;;;;;;38.23;18.67;;;;;;;;;;5061581;28;20300;-68
2023/03/09 06:41:00;;;;;;;34.67;18.20;;;;;;;;;;5063364;28;20209;-68
2023/03/09 06:43:26;;;;;;;34.03;17.80;;;;;;;;;;5058357;28;20196;-68
2023/03/09 06:45:51;;;;;;;36.47;18.20;;;;;;;;;;5049673;28;20228;-69
2023/03/09 06:48:16;;;;;;;34.37;18.17;;;;;;;;;;5062613;28;20197;-68
2023/03/09 06:50:43;;;;;;;35.83;18.37;;;;;;;;;;5064425;28;20197;-68
2023/03/09 06:53:09;;;;;;;37.30;18.30;;;;;;;;;;5057844;28;20780;-67
2023/03/09 06:55:36;;;;;;;36.63;18.17;;;;;;;;;;5054403;28;20275;-68
2023/03/09 06:58:01;;;;;;;39.33;19.13;;;;;;;;;;5050714;28;20444;-68
2023/03/09 07:00:27;;;;;;;37.50;19.47;;;;;;;;;;5063277;28;20639;-68
2023/03/09 07:02:52;;;;;;;36.90;19.37;;;;;;;;;;5056663;28;20185;-68
2023/03/09 07:05:18;;;;;;;35.70;18.83;;;;;;;;;;5068343;28;20224;-68
2023/03/09 07:07:43;;;;;;;34.50;18.37;;;;;;;;;;5061612;28;20201;-69
2023/03/09 07:10:11;;;;;;;31.97;16.93;;;;;;;;;;5058959;28;20191;-68
2023/03/09 07:12:36;;;;;;;34.17;17.97;;;;;;;;;;5062186;28;20249;-68
2023/03/09 07:15:02;;;;;;;31.17;17.97;;;;;;;;;;5058140;28;20201;-69
2023/03/09 07:17:30;;;;;;;34.33;18.40;;;;;;;;;;5059482;28;20208;-68
2023/03/09 07:19:57;;;;;;;31.63;18.07;;;;;;;;;;5048195;28;20528;-68
2023/03/09 07:22:22;;;;;;;32.03;17.23;;;;;;;;;;5058888;28;20205;-68
2023/03/09 07:24:48;;;;;;;34.57;17.60;;;;;;;;;;5059616;28;20185;-68
2023/03/09 07:27:13;;;;;;;33.67;17.60;;;;;;;;;;5060431;28;20255;-68
2023/03/09 07:29:40;;;;;;;31.70;17.97;;;;;;;;;;5059408;28;20213;-68
2023/03/09 07:32:06;;;;;;;31.03;17.50;;;;;;;;;;5050801;28;20229;-68
2023/03/09 07:34:32;;;;;;;32.37;18.27;;;;;;;;;;5062791;28;20781;-69
2023/03/09 07:36:59;;;;;;;29.50;16.47;;;;;;;;;;5059200;28;20365;-68
2023/03/09 07:39:24;;;;;;;30.47;16.10;;;;;;;;;;5064801;28;20589;-68
2023/03/09 07:41:50;;;;;;;31.87;17.13;;;;;;;;;;5049314;28;20328;-68
2023/03/09 07:44:15;;;;;;;30.93;16.80;;;;;;;;;;5054774;28;20220;-68
2023/03/09 07:46:41;;;;;;;32.97;17.60;;;;;;;;;;5066920;28;20273;-68
2023/03/09 07:49:06;;;;;;;31.77;17.83;;;;;;;;;;5056253;28;20656;-68
2023/03/09 07:51:32;;;;;;;32.27;17.80;;;;;;;;;;5049922;28;20186;-68
2023/03/09 07:53:58;;;;;;;31.47;17.23;;;;;;;;;;5058231;28;20195;-68
2023/03/09 07:56:24;;;;;;;30.80;16.50;;;;;;;;;;5052644;28;20185;-68
2023/03/09 07:58:51;;;;;;;30.50;17.13;;;;;;;;;;5059530;28;20267;-68
2023/03/09 08:01:18;;;;;;;28.83;15.87;;;;;;;;;;5050197;28;20628;-69
2023/03/09 08:03:44;;;;;;;31.80;16.53;;;;;;;;;;5051794;28;20190;-70
2023/03/09 08:06:10;;;;;;;28.10;15.97;;;;;;;;;;5061774;28;20712;-70
2023/03/09 08:08:36;;;;;;;30.60;16.70;;;;;;;;;;5054812;28;20288;-71
2023/03/09 08:11:03;;;;;;;30.50;16.43;;;;;;;;;;5051804;28;20228;-71
2023/03/09 08:13:29;;;;;;;27.37;15.67;;;;;;;;;;5046102;28;20198;-71
2023/03/09 08:15:58;;;;;;;27.47;16.30;;;;;;;;;;5054643;28;20185;-71
2023/03/09 08:18:23;;;;;;;25.80;14.47;;;;;;;;;;5065386;28;20673;-71
2023/03/09 08:20:49;;;;;;;25.83;14.97;;;;;;;;;;5052379;28;20188;-72
2023/03/09 08:23:14;;;;;;;27.13;15.50;;;;;;;;;;5056751;28;20197;-71
2023/03/09 08:25:40;;;;;;;25.30;14.43;;;;;;;;;;5061635;28;20636;-72
2023/03/09 08:28:05;;;;;;;26.00;14.67;;;;;;;;;;5052800;28;20205;-74
2023/03/09 08:30:31;;;;;;;25.70;13.80;;;;;;;;;;5068609;28;20181;-72
2023/03/09 08:32:57;;;;;;;23.03;13.60;;;;;;;;;;5050617;28;20643;-75
2023/03/09 08:35:27;;;;;;;25.97;13.57;;;;;;;;;;5054661;28;20693;-73
2023/03/09 08:37:52;;;;;;;24.80;14.23;;;;;;;;;;5051960;28;20213;-74
2023/03/09 08:40:17;;;;;;;23.80;14.43;;;;;;;;;;5053542;28;20197;-74
2023/03/09 08:42:43;;;;;;;25.77;14.83;;;;;;;;;;5062995;28;20387;-74
2023/03/09 08:45:10;;;;;;;25.70;14.10;;;;;;;;;;5055214;28;20545;-74
2023/03/09 08:47:36;;;;;;;24.37;14.80;;;;;;;;;;5044962;28;20726;-70
2023/03/09 08:50:03;;;;;;;23.43;13.93;;;;;;;;;;5066633;28;20205;-72
2023/03/09 08:52:34;;;;;;;23.63;14.00;;;;;;;;;;5058579;28;20269;-72
2023/03/09 08:55:03;;;;;;;22.10;13.13;;;;;;;;;;5061193;28;20180;-73
2023/03/09 08:57:29;;;;;;;24.20;13.53;;;;;;;;;;5052524;28;20558;-72
2023/03/09 08:59:54;;;;;;;19.93;12.13;;;;;;;;;;5058621;28;20290;-73
2023/03/09 09:02:20;;;;;;;25.00;13.40;;;;;;;;;;5060876;28;20226;-72
2023/03/09 09:04:46;;;;;;;21.90;13.13;;;;;;;;;;5062517;28;20780;-70
2023/03/09 09:07:14;;;;;;;21.07;12.90;;;;;;;;;;5063673;28;20195;-70
2023/03/09 09:09:40;;;;;;;23.40;14.00;;;;;;;;;;5055502;28;20634;-72
2023/03/09 09:12:06;;;;;;;22.90;13.70;;;;;;;;;;5066305;28;20462;-70
2023/03/09 09:14:33;;;;;;;24.53;12.83;;;;;;;;;;5069551;28;20234;-70
2023/03/09 09:16:58;;;;;;;24.73;13.67;;;;;;;;;;5061447;28;20212;-70
2023/03/09 09:19:24;;;;;;;22.87;13.43;;;;;;;;;;5052625;28;20186;-70
2023/03/09 09:21:51;;;;;;;23.93;14.37;;;;;;;;;;5059303;28;20246;-69
2023/03/09 09:24:17;;;;;;;24.00;13.67;;;;;;;;;;5062908;28;20192;-69
2023/03/09 09:26:42;;;;;;;22.47;13.93;;;;;;;;;;5067902;28;20578;-69
2023/03/09 09:29:07;;;;;;;24.10;14.23;;;;;;;;;;5056227;28;20181;-70
2023/03/09 09:31:33;;;;;;;22.53;13.03;;;;;;;;;;5065410;28;20204;-70
2023/03/09 09:33:59;;;;;;;21.97;13.23;;;;;;;;;;5054961;28;20673;-70
2023/03/09 09:36:24;;;;;;;19.87;12.30;;;;;;;;;;5053723;28;20185;-70
2023/03/09 09:38:51;;;;;;;22.73;12.87;;;;;;;;;;5057801;28;20221;-69
2023/03/09 09:41:37;;;;;;;22.97;13.23;;;;;;;;;;5054612;28;20244;-69
2023/03/09 09:44:07;;;;;;;21.63;12.57;;;;;;;;;;5064570;28;20581;-69
2023/03/09 09:46:35;;;;;;;19.43;12.03;;;;;;;;;;5052022;28;20188;-69
2023/03/09 09:49:03;;;;;;;25.00;13.47;;;;;;;;;;5067479;28;20207;-69
2023/03/09 09:51:44;;;;;;;19.77;11.93;;;;;;;;;;5058831;28;20315;-69
2023/03/09 09:54:41;;;;;;;21.43;12.83;;;;;;;;;;5063853;28;20644;-68
2023/03/09 09:57:15;;;;;;;23.03;12.57;;;;;;;;;;5060877;28;20270;-69
2023/03/09 09:59:45;;;;;;;19.30;12.70;;;;;;;;;;5066063;28;20180;-69
2023/03/09 10:02:26;;;;;;;21.40;12.60;;;;;;;;;;5062491;28;20664;-69
2023/03/09 10:05:15;;;;;;;39.97;20.53;;;;;;;;;;5069582;28;20189;-68
2023/03/09 10:07:41;;;;;;;21.17;12.23;;;;;;;;;;5061725;28;20532;-68
2023/03/09 10:10:14;;;;;;;21.57;12.50;;;;;;;;;;5054271;28;20196;-68
2023/03/09 10:12:40;;;;;;;20.67;12.50;;;;;;;;;;5049561;28;20189;-69
2023/03/09 10:15:14;;;;;;;21.27;12.27;;;;;;;;;;5049059;28;20196;-69
2023/03/09 10:17:55;;;;;;;21.33;12.70;;;;;;;;;;5062932;28;20198;-69
2023/03/09 10:20:30;;;;;;;17.00;11.17;;;;;;;;;;5063573;28;20196;-69
2023/03/09 10:22:56;;;;;;;19.73;12.73;;;;;;;;;;5051881;28;20245;-69
2023/03/09 10:25:25;;;;;;;18.77;11.70;;;;;;;;;;5056829;28;20207;-69
2023/03/09 10:27:57;;;;;;;21.03;12.70;;;;;;;;;;5067353;28;20189;-69
2023/03/09 10:30:43;;;;;;;20.50;12.60;;;;;;;;;;5059188;28;20197;-68
2023/03/09 10:33:15;;;;;;;19.33;11.93;;;;;;;;;;5056011;28;20199;-69
2023/03/09 10:35:43;;;;;;;19.13;11.87;;;;;;;;;;5057191;28;20193;-69
2023/03/09 10:38:19;;;;;;;20.37;11.90;;;;;;;;;;5062983;28;20292;-69
2023/03/09 10:40:46;;;;;;;18.70;11.80;;;;;;;;;;5063485;28;20185;-69
2023/03/09 10:43:21;;;;;;;21.03;12.37;;;;;;;;;;5064713;28;20593;-69
2023/03/09 10:45:47;;;;;;;20.47;12.33;;;;;;;;;;5061595;28;20196;-69
2023/03/09 10:48:39;;;;;;;19.07;11.90;;;;;;;;;;5066412;28;20277;-69
2023/03/09 10:51:19;;;;;;;21.33;12.47;;;;;;;;;;5067644;28;20197;-69
2023/03/09 10:53:46;;;;;;;19.80;11.93;;;;;;;;;;5052905;28;20199;-69
2023/03/09 10:56:19;;;;;;;22.00;13.00;;;;;;;;;;5069328;28;20184;-69
2023/03/09 10:58:44;;;;;;;20.93;12.27;;;;;;;;;;5050437;28;20201;-69
2023/03/09 11:01:12;;;;;;;20.50;12.47;;;;;;;;;;5062757;28;20712;-69
2023/03/09 11:03:41;;;;;;;22.33;12.70;;;;;;;;;;5062693;28;20203;-69
2023/03/09 11:06:15;;;;;;;20.10;12.30;;;;;;;;;;5056396;28;20243;-68
2023/03/09 11:08:43;;;;;;;18.03;11.13;;;;;;;;;;5053986;28;20232;-68
2023/03/09 11:11:20;;;;;;;20.87;12.87;;;;;;;;;;5050649;28;20193;-68
2023/03/09 11:13:46;;;;;;;19.43;12.13;;;;;;;;;;5067196;28;20245;-68
2023/03/09 11:16:20;;;;;;;18.47;11.63;;;;;;;;;;5063056;28;20642;-68
2023/03/09 11:18:48;;;;;;;18.83;12.37;;;;;;;;;;5051599;28;20225;-68
2023/03/09 11:21:23;;;;;;;19.80;12.33;;;;;;;;;;5065099;28;20277;-69
2023/03/09 11:23:53;;;;;;;20.33;12.10;;;;;;;;;;5057628;28;20313;-68
2023/03/09 11:26:42;;;;;;;18.53;12.00;;;;;;;;;;5060025;28;20188;-68
2023/03/09 11:29:21;;;;;;;21.90;12.53;;;;;;;;;;5051166;28;20251;-68
2023/03/09 11:31:46;;;;;;;18.50;11.37;;;;;;;;;;5056462;28;20600;-68
2023/03/09 11:34:24;;;;;;;21.77;13.00;;;;;;;;;;5052352;28;20313;-68
2023/03/09 11:36:57;;;;;;;17.83;11.30;;;;;;;;;;5065411;28;20188;-68
2023/03/09 11:39:33;;;;;;;20.13;12.83;;;;;;;;;;5050358;28;20343;-68
2023/03/09 11:42:03;;;;;;;19.03;11.97;;;;;;;;;;5059442;28;20189;-68
2023/03/09 11:44:36;;;;;;;19.90;12.43;;;;;;;;;;5056213;28;20210;-68
2023/03/09 11:47:18;;;;;;;18.60;12.27;;;;;;;;;;5065444;28;20264;-68
2023/03/09 11:49:46;;;;;;;21.70;13.53;;;;;;;;;;5048988;28;20288;-68
2023/03/09 11:52:18;;;;;;;19.87;12.83;;;;;;;;;;5053026;28;20215;-68
2023/03/09 11:54:47;;;;;;;20.20;12.80;;;;;;;;;;5063731;28;20319;-68
2023/03/09 11:57:15;;;;;;;20.00;12.73;;;;;;;;;;5064654;28;20208;-68
2023/03/09 11:59:51;;;;;;;21.00;12.07;;;;;;;;;;5067575;28;20189;-68
2023/03/09 12:02:27;;;;;;;19.93;12.17;;;;;;;;;;5065402;28;20196;-68
2023/03/09 12:04:53;;;;;;;18.27;11.90;;;;;;;;;;5068200;28;20609;-68
2023/03/09 12:07:26;;;;;;;20.10;11.87;;;;;;;;;;5052021;28;20223;-68
2023/03/09 12:10:10;;;;;;;20.17;12.47;;;;;;;;;;5051951;28;20201;-69
2023/03/09 12:12:58;;;;;;;17.67;11.40;;;;;;;;;;5061330;28;20204;-68
2023/03/09 12:15:27;;;;;;;17.93;11.87;;;;;;;;;;5060530;28;20200;-68
2023/03/09 12:17:56;;;;;;;19.70;12.33;;;;;;;;;;5065466;28;20216;-68
2023/03/09 12:20:25;;;;;;;20.27;12.80;;;;;;;;;;5054723;28;20281;-68
2023/03/09 12:22:51;;;;;;;18.23;11.57;;;;;;;;;;5052247;28;20573;-68
2023/03/09 12:25:20;;;;;;;19.00;12.60;;;;;;;;;;5059923;28;20185;-68
2023/03/09 12:27:54;;;;;;;21.03;12.97;;;;;;;;;;5051562;28;20271;-68
2023/03/09 12:30:32;;;;;;;18.27;11.90;;;;;;;;;;5059666;28;20194;-67
2023/03/09 12:33:00;;;;;;;16.77;10.97;;;;;;;;;;5053518;28;20207;-67
2023/03/09 12:35:41;;;;;;;18.77;11.47;;;;;;;;;;5061149;28;20675;-68
2023/03/09 12:38:18;;;;;;;18.93;11.77;;;;;;;;;;5053618;28;20212;-68
2023/03/09 12:40:43;;;;;;;19.90;12.37;;;;;;;;;;5062358;28;20184;-68
2023/03/09 12:43:15;;;;;;;19.00;11.63;;;;;;;;;;5050038;28;20239;-68
2023/03/09 12:45:42;;;;;;;19.87;12.40;;;;;;;;;;5055873;28;20193;-68
2023/03/09 12:48:08;;;;;;;19.53;12.57;;;;;;;;;;5048551;28;20747;-68
2023/03/09 12:50:42;;;;;;;20.83;12.40;;;;;;;;;;5045308;28;20200;-69
2023/03/09 12:53:10;;;;;;;19.87;11.77;;;;;;;;;;5061273;28;20227;-68
2023/03/09 12:55:36;;;;;;;19.93;12.17;;;;;;;;;;5059528;28;20589;-68
2023/03/09 12:58:22;;;;;;;20.60;12.47;;;;;;;;;;5060688;28;20592;-69
2023/03/09 13:00:56;;;;;;;20.00;11.93;;;;;;;;;;5064829;28;20259;-70
2023/03/09 13:03:31;;;;;;;20.80;12.20;;;;;;;;;;5062440;28;20180;-69
2023/03/09 13:05:59;;;;;;;23.77;13.00;;;;;;;;;;5066226;28;20216;-69
2023/03/09 13:08:40;;;;;;;20.37;12.87;;;;;;;;;;5066188;28;20185;-70
2023/03/09 13:11:31;;;;;;;21.03;12.03;;;;;;;;;;5062431;28;20426;-70
2023/03/09 13:14:18;;;;;;;19.83;12.13;;;;;;;;;;5064568;28;20184;-71
2023/03/09 13:16:43;;;;;;;20.23;12.63;;;;;;;;;;5049165;28;20185;-73
2023/03/09 13:19:17;;;;;;;22.20;13.43;;;;;;;;;;5057554;28;20192;-72
2023/03/09 13:21:57;;;;;;;23.23;14.17;;;;;;;;;;5048881;28;20343;-73
2023/03/09 13:24:27;;;;;;;21.33;12.53;;;;;;;;;;5063076;28;20200;-71
2023/03/09 13:26:56;;;;;;;24.30;14.03;;;;;;;;;;5048074;28;20194;-71
2023/03/09 13:29:24;;;;;;;22.37;13.30;;;;;;;;;;5052881;28;20544;-70
2023/03/09 13:31:51;;;;;;;22.77;13.37;;;;;;;;;;5063112;28;20185;-70
2023/03/09 13:34:20;;;;;;;24.57;14.00;;;;;;;;;;5057312;28;20331;-71
2023/03/09 13:36:47;;;;;;;23.37;14.03;;;;;;;;;;5060422;28;20197;-70
2023/03/09 13:39:24;;;;;;;25.60;14.13;;;;;;;;;;5058118;28;20186;-70
2023/03/09 13:41:51;;;;;;;25.90;13.73;;;;;;;;;;5059574;28;20224;-71
2023/03/09 13:44:24;;;;;;;31.27;14.13;;;;;;;;;;5070594;28;20570;-70
2023/03/09 13:46:55;;;;;;;23.37;13.50;;;;;;;;;;5070775;28;20224;-71
2023/03/09 13:49:24;;;;;;;25.40;14.70;;;;;;;;;;5072150;28;20185;-70
2023/03/09 13:51:59;;;;;;;22.73;13.20;;;;;;;;;;5051907;28;20189;-70
2023/03/09 13:54:28;;;;;;;23.97;13.87;;;;;;;;;;5063216;28;20345;-70
2023/03/09 13:57:15;;;;;;;23.40;13.90;;;;;;;;;;5054024;28;20251;-70
2023/03/09 13:59:54;;;;;;;23.83;14.20;;;;;;;;;;5068081;28;20871;-70
2023/03/09 14:02:20;;;;;;;23.60;14.13;;;;;;;;;;5052618;28;20288;-70
2023/03/09 14:05:00;;;;;;;24.07;13.97;;;;;;;;;;5065029;28;20198;-70
2023/03/09 14:07:51;;;;;;;25.07;14.33;;;;;;;;;;5064492;28;20177;-71
2023/03/09 14:10:37;;;;;;;24.63;14.27;;;;;;;;;;5066270;28;20193;-71
2023/03/09 14:13:15;;;;;;;22.80;13.67;;;;;;;;;;5061724;28;20181;-70
2023/03/09 14:15:40;;;;;;;25.83;15.47;;;;;;;;;;5068453;28;20733;-71
2023/03/09 14:18:29;;;;;;;26.27;15.30;;;;;;;;;;5060090;28;20221;-70
2023/03/09 14:20:56;;;;;;;28.70;15.23;;;;;;;;;;5056306;28;20220;-70
2023/03/09 14:23:39;;;;;;;26.60;15.13;;;;;;;;;;5069414;28;20185;-70
2023/03/09 14:26:07;;;;;;;25.47;14.17;;;;;;;;;;5048164;28;20195;-70